sensor_id;sensor_type;location;lat;lon;timestamp;P1;durP1;ratioP1;P2;durP2;ratioP2
16624;SDS011;8426;48.496;9.098;2023-03-23T00:02:55;3.40;;;0.82;;
16624;SDS011;8426;48.496;9.098;2023-03-23T00:07:57;1.35;;;0.85;;
16624;SDS011;8426;48.496;9.098;2023-03-23T00:13:03;1.63;;;0.90;;
16624;SDS011;8426;48.496;9.098;2023-03-23T00:18:06;1.85;;;0.80;;
16624;SDS011;8426;48.496;9.098;2023-03-23T00:23:10;1.00;;;0.80;;
16624;SDS011;8426;48.496;9.098;2023-03-23T00:28:20;1.52;;;1.23;;
16624;SDS011;8426;48.496;9.098;2023-03-23T00:33:26;1.85;;;0.70;;
16624;SDS011;8426;48.496;9.098;2023-03-23T00:38:28;2.20;;;1.10;;
16624;SDS011;8426;48.496;9.098;2023-03-23T00:43:32;2.28;;;0.98;;
16624;SDS011;8426;48.496;9.098;2023-03-23T00:48:36;1.45;;;0.95;;
16624;SDS011;8426;48.496;9.098;2023-03-23T00:53:41;3.65;;;1.00;;
16624;SDS011;8426;48.496;9.098;2023-03-23T00:58:44;1.02;;;0.80;;
16624;SDS011;8426;48.496;9.098;2023-03-23T01:03:47;3.60;;;1.05;;
16624;SDS011;8426;48.496;9.098;2023-03-23T01:08:49;1.70;;;0.70;;
16624;SDS011;8426;48.496;9.098;2023-03-23T01:13:55;2.72;;;0.90;;
16624;SDS011;8426;48.496;9.098;2023-03-23T01:18:57;1.55;;;0.82;;
16624;SDS011;8426;48.496;9.098;2023-03-23T01:23:59;3.78;;;0.75;;
16624;SDS011;8426;48.496;9.098;2023-03-23T01:29:03;1.08;;;0.80;;
16624;SDS011;8426;48.496;9.098;2023-03-23T01:34:06;1.45;;;0.70;;
16624;SDS011;8426;48.496;9.098;2023-03-23T01:39:08;1.70;;;0.82;;
16624;SDS011;8426;48.496;9.098;2023-03-23T01:49:47;3.83;;;1.00;;
16624;SDS011;8426;48.496;9.098;2023-03-23T01:54:50;2.53;;;1.10;;
16624;SDS011;8426;48.496;9.098;2023-03-23T01:59:55;3.38;;;1.30;;
16624;SDS011;8426;48.496;9.098;2023-03-23T02:05:09;2.08;;;1.10;;
16624;SDS011;8426;48.496;9.098;2023-03-23T02:10:14;3.08;;;1.20;;
16624;SDS011;8426;48.496;9.098;2023-03-23T02:15:17;5.38;;;1.58;;
16624;SDS011;8426;48.496;9.098;2023-03-23T02:20:27;3.40;;;1.10;;
16624;SDS011;8426;48.496;9.098;2023-03-23T02:25:47;2.40;;;1.10;;
16624;SDS011;8426;48.496;9.098;2023-03-23T02:31:03;3.65;;;1.23;;
16624;SDS011;8426;48.496;9.098;2023-03-23T02:36:21;1.13;;;0.73;;
16624;SDS011;8426;48.496;9.098;2023-03-23T02:41:34;3.28;;;0.95;;
16624;SDS011;8426;48.496;9.098;2023-03-23T02:46:41;1.83;;;0.82;;
16624;SDS011;8426;48.496;9.098;2023-03-23T02:51:46;1.80;;;1.02;;
16624;SDS011;8426;48.496;9.098;2023-03-23T02:56:50;1.27;;;0.70;;
16624;SDS011;8426;48.496;9.098;2023-03-23T03:02:00;1.27;;;0.90;;
16624;SDS011;8426;48.496;9.098;2023-03-23T03:12:51;3.60;;;1.00;;
16624;SDS011;8426;48.496;9.098;2023-03-23T03:17:59;2.65;;;0.88;;
16624;SDS011;8426;48.496;9.098;2023-03-23T03:23:08;0.73;;;0.60;;
16624;SDS011;8426;48.496;9.098;2023-03-23T03:28:14;1.23;;;0.70;;
16624;SDS011;8426;48.496;9.098;2023-03-23T03:33:21;1.23;;;0.82;;
16624;SDS011;8426;48.496;9.098;2023-03-23T03:38:27;2.00;;;0.43;;
16624;SDS011;8426;48.496;9.098;2023-03-23T03:43:29;1.73;;;0.70;;
16624;SDS011;8426;48.496;9.098;2023-03-23T03:48:31;1.17;;;0.77;;
16624;SDS011;8426;48.496;9.098;2023-03-23T03:53:35;2.30;;;0.57;;
16624;SDS011;8426;48.496;9.098;2023-03-23T03:58:38;1.35;;;0.65;;
16624;SDS011;8426;48.496;9.098;2023-03-23T04:03:42;0.70;;;0.65;;
16624;SDS011;8426;48.496;9.098;2023-03-23T04:08:46;1.55;;;0.70;;
16624;SDS011;8426;48.496;9.098;2023-03-23T04:13:49;1.65;;;0.88;;
16624;SDS011;8426;48.496;9.098;2023-03-23T04:18:51;1.58;;;0.57;;
16624;SDS011;8426;48.496;9.098;2023-03-23T04:23:57;1.10;;;0.77;;
16624;SDS011;8426;48.496;9.098;2023-03-23T04:29:00;1.05;;;0.75;;
16624;SDS011;8426;48.496;9.098;2023-03-23T04:34:03;2.45;;;0.93;;
16624;SDS011;8426;48.496;9.098;2023-03-23T04:39:07;2.92;;;0.60;;
16624;SDS011;8426;48.496;9.098;2023-03-23T04:44:11;1.13;;;0.65;;
16624;SDS011;8426;48.496;9.098;2023-03-23T04:49:17;1.02;;;0.90;;
16624;SDS011;8426;48.496;9.098;2023-03-23T04:54:22;1.50;;;0.70;;
16624;SDS011;8426;48.496;9.098;2023-03-23T04:59:24;1.88;;;0.82;;
16624;SDS011;8426;48.496;9.098;2023-03-23T05:04:28;1.65;;;0.55;;
16624;SDS011;8426;48.496;9.098;2023-03-23T05:09:32;1.45;;;0.50;;
16624;SDS011;8426;48.496;9.098;2023-03-23T05:14:35;1.58;;;0.57;;
16624;SDS011;8426;48.496;9.098;2023-03-23T05:19:41;1.58;;;0.68;;
16624;SDS011;8426;48.496;9.098;2023-03-23T05:24:45;1.80;;;0.75;;
16624;SDS011;8426;48.496;9.098;2023-03-23T05:29:48;0.90;;;0.70;;
16624;SDS011;8426;48.496;9.098;2023-03-23T05:34:50;1.13;;;0.70;;
16624;SDS011;8426;48.496;9.098;2023-03-23T05:39:53;1.55;;;0.80;;
16624;SDS011;8426;48.496;9.098;2023-03-23T05:44:56;3.08;;;0.93;;
16624;SDS011;8426;48.496;9.098;2023-03-23T05:49:58;1.85;;;0.70;;
16624;SDS011;8426;48.496;9.098;2023-03-23T05:55:02;1.58;;;0.73;;
16624;SDS011;8426;48.496;9.098;2023-03-23T06:00:09;2.78;;;1.50;;
16624;SDS011;8426;48.496;9.098;2023-03-23T06:05:20;1.65;;;0.77;;
16624;SDS011;8426;48.496;9.098;2023-03-23T06:10:23;1.88;;;0.82;;
16624;SDS011;8426;48.496;9.098;2023-03-23T06:15:29;1.58;;;0.80;;
16624;SDS011;8426;48.496;9.098;2023-03-23T06:20:32;0.75;;;0.60;;
16624;SDS011;8426;48.496;9.098;2023-03-23T06:25:37;2.58;;;0.80;;
16624;SDS011;8426;48.496;9.098;2023-03-23T06:30:41;2.55;;;0.82;;
16624;SDS011;8426;48.496;9.098;2023-03-23T06:35:44;0.90;;;0.60;;
16624;SDS011;8426;48.496;9.098;2023-03-23T06:40:47;1.45;;;0.77;;
16624;SDS011;8426;48.496;9.098;2023-03-23T06:45:52;1.95;;;0.80;;
16624;SDS011;8426;48.496;9.098;2023-03-23T06:50:55;1.98;;;0.93;;
16624;SDS011;8426;48.496;9.098;2023-03-23T06:55:59;2.97;;;0.80;;
16624;SDS011;8426;48.496;9.098;2023-03-23T07:01:02;2.15;;;0.80;;
16624;SDS011;8426;48.496;9.098;2023-03-23T07:06:07;1.77;;;0.80;;
16624;SDS011;8426;48.496;9.098;2023-03-23T07:11:12;1.35;;;0.75;;
16624;SDS011;8426;48.496;9.098;2023-03-23T07:16:15;1.95;;;0.82;;
16624;SDS011;8426;48.496;9.098;2023-03-23T07:21:21;0.90;;;0.52;;
16624;SDS011;8426;48.496;9.098;2023-03-23T07:26:25;1.45;;;0.70;;
16624;SDS011;8426;48.496;9.098;2023-03-23T07:31:27;1.35;;;0.77;;
16624;SDS011;8426;48.496;9.098;2023-03-23T07:36:30;1.45;;;0.93;;
16624;SDS011;8426;48.496;9.098;2023-03-23T07:41:33;2.10;;;0.80;;
16624;SDS011;8426;48.496;9.098;2023-03-23T07:46:36;2.20;;;0.80;;
16624;SDS011;8426;48.496;9.098;2023-03-23T07:52:04;3.83;;;1.20;;
16624;SDS011;8426;48.496;9.098;2023-03-23T07:57:07;1.92;;;0.88;;
16624;SDS011;8426;48.496;9.098;2023-03-23T08:02:10;1.50;;;1.02;;
16624;SDS011;8426;48.496;9.098;2023-03-23T08:07:12;2.92;;;0.90;;
16624;SDS011;8426;48.496;9.098;2023-03-23T08:12:17;3.97;;;0.75;;
16624;SDS011;8426;48.496;9.098;2023-03-23T08:17:21;1.60;;;0.73;;
16624;SDS011;8426;48.496;9.098;2023-03-23T08:22:27;2.63;;;1.00;;
16624;SDS011;8426;48.496;9.098;2023-03-23T08:27:34;2.65;;;0.80;;
16624;SDS011;8426;48.496;9.098;2023-03-23T08:32:36;1.50;;;0.75;;
16624;SDS011;8426;48.496;9.098;2023-03-23T08:37:38;4.30;;;0.90;;
16624;SDS011;8426;48.496;9.098;2023-03-23T08:42:43;12.60;;;1.15;;
16624;SDS011;8426;48.496;9.098;2023-03-23T08:47:45;1.25;;;0.60;;
16624;SDS011;8426;48.496;9.098;2023-03-23T08:52:52;2.92;;;0.70;;
16624;SDS011;8426;48.496;9.098;2023-03-23T08:57:56;4.15;;;1.20;;
16624;SDS011;8426;48.496;9.098;2023-03-23T09:02:58;1.73;;;0.75;;
16624;SDS011;8426;48.496;9.098;2023-03-23T09:08:02;3.97;;;0.90;;
16624;SDS011;8426;48.496;9.098;2023-03-23T09:13:08;1.30;;;0.80;;
16624;SDS011;8426;48.496;9.098;2023-03-23T09:18:12;1.65;;;0.80;;
16624;SDS011;8426;48.496;9.098;2023-03-23T09:23:14;1.17;;;0.73;;
16624;SDS011;8426;48.496;9.098;2023-03-23T09:28:18;1.90;;;0.93;;
16624;SDS011;8426;48.496;9.098;2023-03-23T09:33:20;1.33;;;0.70;;
16624;SDS011;8426;48.496;9.098;2023-03-23T09:38:28;1.40;;;0.85;;
16624;SDS011;8426;48.496;9.098;2023-03-23T09:43:40;1.30;;;0.70;;
16624;SDS011;8426;48.496;9.098;2023-03-23T09:48:51;2.22;;;0.68;;
16624;SDS011;8426;48.496;9.098;2023-03-23T09:53:59;2.55;;;1.00;;
16624;SDS011;8426;48.496;9.098;2023-03-23T09:59:11;1.05;;;0.80;;
16624;SDS011;8426;48.496;9.098;2023-03-23T10:04:24;1.52;;;0.85;;
16624;SDS011;8426;48.496;9.098;2023-03-23T10:10:01;0.65;;;0.40;;
16624;SDS011;8426;48.496;9.098;2023-03-23T10:15:12;6.88;;;0.80;;
16624;SDS011;8426;48.496;9.098;2023-03-23T10:20:19;3.63;;;0.70;;
16624;SDS011;8426;48.496;9.098;2023-03-23T10:25:29;1.35;;;0.70;;
16624;SDS011;8426;48.496;9.098;2023-03-23T10:30:39;1.20;;;0.80;;
16624;SDS011;8426;48.496;9.098;2023-03-23T10:35:43;0.98;;;0.65;;
16624;SDS011;8426;48.496;9.098;2023-03-23T10:40:54;1.70;;;0.70;;
16624;SDS011;8426;48.496;9.098;2023-03-23T10:46:05;1.05;;;0.75;;
16624;SDS011;8426;48.496;9.098;2023-03-23T10:51:17;1.10;;;0.70;;
16624;SDS011;8426;48.496;9.098;2023-03-23T10:56:26;1.50;;;0.70;;
16624;SDS011;8426;48.496;9.098;2023-03-23T11:01:31;2.40;;;1.10;;
16624;SDS011;8426;48.496;9.098;2023-03-23T11:06:36;2.85;;;0.70;;
16624;SDS011;8426;48.496;9.098;2023-03-23T11:11:43;1.75;;;0.60;;
16624;SDS011;8426;48.496;9.098;2023-03-23T11:16:52;2.83;;;1.10;;
16624;SDS011;8426;48.496;9.098;2023-03-23T11:21:59;1.48;;;0.77;;
16624;SDS011;8426;48.496;9.098;2023-03-23T11:27:09;1.27;;;0.70;;
16624;SDS011;8426;48.496;9.098;2023-03-23T11:32:17;1.05;;;0.57;;
16624;SDS011;8426;48.496;9.098;2023-03-23T11:37:27;3.15;;;0.88;;
16624;SDS011;8426;48.496;9.098;2023-03-23T11:42:34;5.25;;;0.68;;
16624;SDS011;8426;48.496;9.098;2023-03-23T11:47:40;1.00;;;0.60;;
16624;SDS011;8426;48.496;9.098;2023-03-23T11:52:47;1.13;;;0.60;;
16624;SDS011;8426;48.496;9.098;2023-03-23T11:57:54;2.75;;;0.98;;
16624;SDS011;8426;48.496;9.098;2023-03-23T12:02:59;1.40;;;0.70;;
16624;SDS011;8426;48.496;9.098;2023-03-23T12:08:13;5.72;;;0.90;;
16624;SDS011;8426;48.496;9.098;2023-03-23T12:13:39;1.55;;;0.80;;
16624;SDS011;8426;48.496;9.098;2023-03-23T12:18:55;1.77;;;0.82;;
16624;SDS011;8426;48.496;9.098;2023-03-23T12:24:08;2.30;;;0.88;;
16624;SDS011;8426;48.496;9.098;2023-03-23T12:29:23;1.27;;;0.60;;
16624;SDS011;8426;48.496;9.098;2023-03-23T12:34:46;1.35;;;0.50;;
16624;SDS011;8426;48.496;9.098;2023-03-23T12:40:07;1.73;;;0.68;;
16624;SDS011;8426;48.496;9.098;2023-03-23T12:45:47;1.88;;;0.70;;
16624;SDS011;8426;48.496;9.098;2023-03-23T12:51:09;1.52;;;1.00;;
16624;SDS011;8426;48.496;9.098;2023-03-23T12:56:21;4.20;;;0.85;;
16624;SDS011;8426;48.496;9.098;2023-03-23T13:01:28;1.73;;;0.80;;
16624;SDS011;8426;48.496;9.098;2023-03-23T13:06:36;2.25;;;0.70;;
16624;SDS011;8426;48.496;9.098;2023-03-23T13:11:43;2.30;;;0.65;;
16624;SDS011;8426;48.496;9.098;2023-03-23T13:16:49;1.10;;;0.68;;
16624;SDS011;8426;48.496;9.098;2023-03-23T13:21:58;2.90;;;0.85;;
16624;SDS011;8426;48.496;9.098;2023-03-23T13:27:06;2.72;;;1.00;;
16624;SDS011;8426;48.496;9.098;2023-03-23T13:32:38;3.95;;;1.13;;
16624;SDS011;8426;48.496;9.098;2023-03-23T13:37:44;1.55;;;0.77;;
16624;SDS011;8426;48.496;9.098;2023-03-23T13:42:48;1.27;;;0.80;;
16624;SDS011;8426;48.496;9.098;2023-03-23T13:48:02;6.32;;;1.00;;
16624;SDS011;8426;48.496;9.098;2023-03-23T13:53:14;4.70;;;0.70;;
16624;SDS011;8426;48.496;9.098;2023-03-23T13:58:24;3.58;;;0.90;;
16624;SDS011;8426;48.496;9.098;2023-03-23T14:03:32;1.38;;;0.90;;
16624;SDS011;8426;48.496;9.098;2023-03-23T14:08:41;1.73;;;1.02;;
16624;SDS011;8426;48.496;9.098;2023-03-23T14:13:50;2.45;;;1.20;;
16624;SDS011;8426;48.496;9.098;2023-03-23T14:19:13;4.93;;;1.15;;
16624;SDS011;8426;48.496;9.098;2023-03-23T14:24:22;2.35;;;1.10;;
16624;SDS011;8426;48.496;9.098;2023-03-23T14:29:27;3.50;;;0.95;;
16624;SDS011;8426;48.496;9.098;2023-03-23T14:34:29;1.75;;;1.00;;
16624;SDS011;8426;48.496;9.098;2023-03-23T14:39:36;2.10;;;1.10;;
16624;SDS011;8426;48.496;9.098;2023-03-23T14:44:41;1.63;;;1.00;;
16624;SDS011;8426;48.496;9.098;2023-03-23T14:49:48;3.75;;;1.30;;
16624;SDS011;8426;48.496;9.098;2023-03-23T14:55:07;1.50;;;0.90;;
16624;SDS011;8426;48.496;9.098;2023-03-23T15:00:13;2.20;;;1.10;;
16624;SDS011;8426;48.496;9.098;2023-03-23T15:05:18;3.47;;;1.17;;
16624;SDS011;8426;48.496;9.098;2023-03-23T15:10:25;1.60;;;0.95;;
16624;SDS011;8426;48.496;9.098;2023-03-23T15:15:29;3.78;;;1.10;;
16624;SDS011;8426;48.496;9.098;2023-03-23T15:20:45;1.77;;;1.00;;
16624;SDS011;8426;48.496;9.098;2023-03-23T15:25:52;1.90;;;0.90;;
16624;SDS011;8426;48.496;9.098;2023-03-23T15:30:57;4.20;;;1.05;;
16624;SDS011;8426;48.496;9.098;2023-03-23T15:36:05;1.48;;;0.88;;
16624;SDS011;8426;48.496;9.098;2023-03-23T15:41:19;3.00;;;1.15;;
16624;SDS011;8426;48.496;9.098;2023-03-23T15:46:28;2.95;;;1.10;;
16624;SDS011;8426;48.496;9.098;2023-03-23T15:51:30;3.53;;;1.13;;
16624;SDS011;8426;48.496;9.098;2023-03-23T15:56:35;1.77;;;1.10;;
16624;SDS011;8426;48.496;9.098;2023-03-23T16:01:38;3.17;;;0.98;;
16624;SDS011;8426;48.496;9.098;2023-03-23T16:06:46;1.73;;;0.93;;
16624;SDS011;8426;48.496;9.098;2023-03-23T16:11:53;2.90;;;0.90;;
16624;SDS011;8426;48.496;9.098;2023-03-23T16:16:56;2.72;;;1.20;;
16624;SDS011;8426;48.496;9.098;2023-03-23T16:22:05;3.60;;;1.10;;
16624;SDS011;8426;48.496;9.098;2023-03-23T16:27:13;1.73;;;0.93;;
16624;SDS011;8426;48.496;9.098;2023-03-23T16:32:16;2.58;;;1.20;;
16624;SDS011;8426;48.496;9.098;2023-03-23T16:37:19;1.15;;;0.77;;
16624;SDS011;8426;48.496;9.098;2023-03-23T16:42:24;4.07;;;1.08;;
16624;SDS011;8426;48.496;9.098;2023-03-23T16:47:27;2.08;;;1.00;;
16624;SDS011;8426;48.496;9.098;2023-03-23T16:52:31;2.72;;;1.05;;
16624;SDS011;8426;48.496;9.098;2023-03-23T16:57:48;2.63;;;0.80;;
16624;SDS011;8426;48.496;9.098;2023-03-23T17:02:53;5.55;;;1.42;;
16624;SDS011;8426;48.496;9.098;2023-03-23T17:07:58;2.00;;;1.08;;
16624;SDS011;8426;48.496;9.098;2023-03-23T17:13:07;3.03;;;1.20;;
16624;SDS011;8426;48.496;9.098;2023-03-23T17:18:11;3.28;;;1.17;;
16624;SDS011;8426;48.496;9.098;2023-03-23T17:23:19;4.28;;;1.55;;
16624;SDS011;8426;48.496;9.098;2023-03-23T17:28:24;4.28;;;1.48;;
16624;SDS011;8426;48.496;9.098;2023-03-23T17:33:28;2.90;;;1.27;;
16624;SDS011;8426;48.496;9.098;2023-03-23T17:38:31;2.35;;;1.23;;
16624;SDS011;8426;48.496;9.098;2023-03-23T17:43:36;1.98;;;1.17;;
16624;SDS011;8426;48.496;9.098;2023-03-23T17:48:40;2.75;;;1.30;;
16624;SDS011;8426;48.496;9.098;2023-03-23T17:53:44;2.45;;;1.02;;
16624;SDS011;8426;48.496;9.098;2023-03-23T17:58:49;2.20;;;1.10;;
16624;SDS011;8426;48.496;9.098;2023-03-23T18:03:52;5.00;;;1.23;;
16624;SDS011;8426;48.496;9.098;2023-03-23T18:08:56;4.97;;;1.38;;
16624;SDS011;8426;48.496;9.098;2023-03-23T18:14:01;1.80;;;1.13;;
16624;SDS011;8426;48.496;9.098;2023-03-23T18:19:04;2.45;;;1.17;;
16624;SDS011;8426;48.496;9.098;2023-03-23T18:24:15;2.03;;;1.10;;
16624;SDS011;8426;48.496;9.098;2023-03-23T18:29:22;2.92;;;1.20;;
16624;SDS011;8426;48.496;9.098;2023-03-23T18:34:25;3.05;;;1.33;;
16624;SDS011;8426;48.496;9.098;2023-03-23T18:39:30;3.05;;;1.40;;
16624;SDS011;8426;48.496;9.098;2023-03-23T18:44:36;8.93;;;1.70;;
16624;SDS011;8426;48.496;9.098;2023-03-23T18:49:39;2.97;;;1.40;;
16624;SDS011;8426;48.496;9.098;2023-03-23T18:54:46;2.28;;;1.38;;
16624;SDS011;8426;48.496;9.098;2023-03-23T18:59:51;2.63;;;1.33;;
16624;SDS011;8426;48.496;9.098;2023-03-23T19:04:58;2.97;;;1.30;;
16624;SDS011;8426;48.496;9.098;2023-03-23T19:10:03;4.03;;;1.42;;
16624;SDS011;8426;48.496;9.098;2023-03-23T19:15:08;4.15;;;1.42;;
16624;SDS011;8426;48.496;9.098;2023-03-23T19:20:12;8.32;;;1.40;;
16624;SDS011;8426;48.496;9.098;2023-03-23T19:25:36;2.97;;;1.13;;
16624;SDS011;8426;48.496;9.098;2023-03-23T19:30:45;2.67;;;1.15;;
16624;SDS011;8426;48.496;9.098;2023-03-23T19:35:50;3.90;;;1.40;;
16624;SDS011;8426;48.496;9.098;2023-03-23T19:41:10;4.32;;;1.13;;
16624;SDS011;8426;48.496;9.098;2023-03-23T19:46:15;2.00;;;1.00;;
16624;SDS011;8426;48.496;9.098;2023-03-23T19:51:19;2.80;;;1.20;;
16624;SDS011;8426;48.496;9.098;2023-03-23T19:56:25;2.13;;;1.20;;
16624;SDS011;8426;48.496;9.098;2023-03-23T20:01:41;4.82;;;1.50;;
16624;SDS011;8426;48.496;9.098;2023-03-23T20:06:50;3.83;;;1.40;;
16624;SDS011;8426;48.496;9.098;2023-03-23T20:11:54;2.83;;;1.02;;
16624;SDS011;8426;48.496;9.098;2023-03-23T20:16:59;2.55;;;0.90;;
16624;SDS011;8426;48.496;9.098;2023-03-23T20:22:03;1.95;;;1.10;;
16624;SDS011;8426;48.496;9.098;2023-03-23T20:27:07;3.58;;;1.10;;
16624;SDS011;8426;48.496;9.098;2023-03-23T20:32:13;1.83;;;0.85;;
16624;SDS011;8426;48.496;9.098;2023-03-23T20:37:17;1.50;;;0.93;;
16624;SDS011;8426;48.496;9.098;2023-03-23T20:42:21;2.13;;;0.90;;
16624;SDS011;8426;48.496;9.098;2023-03-23T20:47:26;2.50;;;1.20;;
16624;SDS011;8426;48.496;9.098;2023-03-23T20:52:30;3.42;;;1.15;;
16624;SDS011;8426;48.496;9.098;2023-03-23T20:57:33;1.92;;;0.77;;
16624;SDS011;8426;48.496;9.098;2023-03-23T21:02:40;2.75;;;1.38;;
16624;SDS011;8426;48.496;9.098;2023-03-23T21:07:45;1.05;;;0.70;;
16624;SDS011;8426;48.496;9.098;2023-03-23T21:12:50;2.03;;;0.80;;
16624;SDS011;8426;48.496;9.098;2023-03-23T21:17:56;2.95;;;1.30;;
16624;SDS011;8426;48.496;9.098;2023-03-23T21:23:00;2.65;;;1.23;;
16624;SDS011;8426;48.496;9.098;2023-03-23T21:28:11;1.50;;;1.00;;
16624;SDS011;8426;48.496;9.098;2023-03-23T21:33:22;4.13;;;1.00;;
16624;SDS011;8426;48.496;9.098;2023-03-23T21:38:25;1.70;;;1.00;;
16624;SDS011;8426;48.496;9.098;2023-03-23T21:43:29;1.85;;;1.08;;
16624;SDS011;8426;48.496;9.098;2023-03-23T21:48:35;2.13;;;1.00;;
16624;SDS011;8426;48.496;9.098;2023-03-23T21:53:39;2.05;;;1.10;;
16624;SDS011;8426;48.496;9.098;2023-03-23T21:58:44;2.95;;;1.15;;
16624;SDS011;8426;48.496;9.098;2023-03-23T22:03:49;1.83;;;1.00;;
16624;SDS011;8426;48.496;9.098;2023-03-23T22:08:53;1.75;;;0.98;;
16624;SDS011;8426;48.496;9.098;2023-03-23T22:13:56;1.90;;;1.20;;
16624;SDS011;8426;48.496;9.098;2023-03-23T22:19:02;4.82;;;1.40;;
16624;SDS011;8426;48.496;9.098;2023-03-23T22:24:05;3.35;;;1.30;;
16624;SDS011;8426;48.496;9.098;2023-03-23T22:29:11;5.38;;;1.60;;
16624;SDS011;8426;48.496;9.098;2023-03-23T22:34:18;2.70;;;1.48;;
16624;SDS011;8426;48.496;9.098;2023-03-23T22:39:22;2.15;;;1.42;;
16624;SDS011;8426;48.496;9.098;2023-03-23T22:44:26;2.80;;;1.75;;
16624;SDS011;8426;48.496;9.098;2023-03-23T22:49:30;2.28;;;1.40;;
16624;SDS011;8426;48.496;9.098;2023-03-23T22:54:34;3.38;;;1.67;;
16624;SDS011;8426;48.496;9.098;2023-03-23T22:59:37;6.68;;;2.65;;
16624;SDS011;8426;48.496;9.098;2023-03-23T23:04:42;3.10;;;1.52;;
16624;SDS011;8426;48.496;9.098;2023-03-23T23:09:46;3.22;;;1.55;;
16624;SDS011;8426;48.496;9.098;2023-03-23T23:14:49;2.03;;;1.33;;
16624;SDS011;8426;48.496;9.098;2023-03-23T23:19:54;1.45;;;1.02;;
16624;SDS011;8426;48.496;9.098;2023-03-23T23:24:58;3.08;;;1.13;;
16624;SDS011;8426;48.496;9.098;2023-03-23T23:30:02;2.50;;;1.05;;
16624;SDS011;8426;48.496;9.098;2023-03-23T23:35:08;2.70;;;1.13;;
16624;SDS011;8426;48.496;9.098;2023-03-23T23:40:13;2.63;;;1.35;;
16624;SDS011;8426;48.496;9.098;2023-03-23T23:45:17;3.00;;;1.40;;
16624;SDS011;8426;48.496;9.098;2023-03-23T23:50:22;2.35;;;1.45;;
16624;SDS011;8426;48.496;9.098;2023-03-23T23:55:26;3.00;;;1.35;;
